sensor_id;sensor_type;location;lat;lon;timestamp;P1;durP1;ratioP1;P2;durP2;ratioP2
32535;SDS011;18974;50.838;4.636;2023-02-28T00:00:20;11.52;;;5.72;;
32535;SDS011;18974;50.838;4.636;2023-02-28T00:02:46;10.30;;;5.30;;
32535;SDS011;18974;50.838;4.636;2023-02-28T00:05:14;13.93;;;5.80;;
32535;SDS011;18974;50.838;4.636;2023-02-28T00:07:41;12.68;;;5.90;;
32535;SDS011;18974;50.838;4.636;2023-02-28T00:10:08;9.32;;;5.85;;
32535;SDS011;18974;50.838;4.636;2023-02-28T00:12:35;13.20;;;5.85;;
32535;SDS011;18974;50.838;4.636;2023-02-28T00:15:03;10.75;;;5.70;;
32535;SDS011;18974;50.838;4.636;2023-02-28T00:17:31;11.50;;;5.80;;
32535;SDS011;18974;50.838;4.636;2023-02-28T00:19:56;16.75;;;5.45;;
32535;SDS011;18974;50.838;4.636;2023-02-28T00:22:26;12.25;;;5.95;;
32535;SDS011;18974;50.838;4.636;2023-02-28T00:24:52;12.05;;;5.07;;
32535;SDS011;18974;50.838;4.636;2023-02-28T00:27:18;8.55;;;5.10;;
32535;SDS011;18974;50.838;4.636;2023-02-28T00:29:43;9.88;;;5.20;;
32535;SDS011;18974;50.838;4.636;2023-02-28T00:32:12;12.73;;;5.97;;
32535;SDS011;18974;50.838;4.636;2023-02-28T00:34:38;12.02;;;5.55;;
32535;SDS011;18974;50.838;4.636;2023-02-28T00:37:07;12.52;;;5.47;;
32535;SDS011;18974;50.838;4.636;2023-02-28T00:39:35;10.15;;;4.97;;
32535;SDS011;18974;50.838;4.636;2023-02-28T00:42:02;12.60;;;5.72;;
32535;SDS011;18974;50.838;4.636;2023-02-28T00:44:28;13.68;;;5.07;;
32535;SDS011;18974;50.838;4.636;2023-02-28T00:46:54;12.88;;;4.97;;
32535;SDS011;18974;50.838;4.636;2023-02-28T00:49:21;9.38;;;5.30;;
32535;SDS011;18974;50.838;4.636;2023-02-28T00:51:47;12.32;;;5.45;;
32535;SDS011;18974;50.838;4.636;2023-02-28T00:54:13;13.35;;;5.40;;
32535;SDS011;18974;50.838;4.636;2023-02-28T00:56:39;8.27;;;5.05;;
32535;SDS011;18974;50.838;4.636;2023-02-28T00:59:05;10.80;;;5.68;;
32535;SDS011;18974;50.838;4.636;2023-02-28T01:01:30;10.20;;;5.35;;
32535;SDS011;18974;50.838;4.636;2023-02-28T01:03:56;12.13;;;5.10;;
32535;SDS011;18974;50.838;4.636;2023-02-28T01:06:22;11.07;;;6.03;;
32535;SDS011;18974;50.838;4.636;2023-02-28T01:08:47;15.43;;;5.90;;
32535;SDS011;18974;50.838;4.636;2023-02-28T01:11:15;9.80;;;5.20;;
32535;SDS011;18974;50.838;4.636;2023-02-28T01:13:42;14.30;;;5.68;;
32535;SDS011;18974;50.838;4.636;2023-02-28T01:16:09;13.63;;;5.13;;
32535;SDS011;18974;50.838;4.636;2023-02-28T01:18:35;10.40;;;4.97;;
32535;SDS011;18974;50.838;4.636;2023-02-28T01:21:05;8.13;;;4.63;;
32535;SDS011;18974;50.838;4.636;2023-02-28T01:23:32;14.07;;;5.55;;
32535;SDS011;18974;50.838;4.636;2023-02-28T01:26:03;12.38;;;5.32;;
32535;SDS011;18974;50.838;4.636;2023-02-28T01:33:25;12.98;;;5.70;;
32535;SDS011;18974;50.838;4.636;2023-02-28T01:35:57;10.35;;;5.35;;
32535;SDS011;18974;50.838;4.636;2023-02-28T01:38:26;13.02;;;5.70;;
32535;SDS011;18974;50.838;4.636;2023-02-28T01:40:52;11.35;;;5.60;;
32535;SDS011;18974;50.838;4.636;2023-02-28T01:43:28;11.93;;;5.43;;
32535;SDS011;18974;50.838;4.636;2023-02-28T01:45:56;13.13;;;5.78;;
32535;SDS011;18974;50.838;4.636;2023-02-28T01:48:33;10.10;;;5.78;;
32535;SDS011;18974;50.838;4.636;2023-02-28T01:51:03;15.82;;;6.43;;
32535;SDS011;18974;50.838;4.636;2023-02-28T01:53:44;10.20;;;5.65;;
32535;SDS011;18974;50.838;4.636;2023-02-28T01:56:13;10.15;;;5.45;;
32535;SDS011;18974;50.838;4.636;2023-02-28T01:58:46;13.18;;;6.07;;
32535;SDS011;18974;50.838;4.636;2023-02-28T02:01:13;14.55;;;6.53;;
32535;SDS011;18974;50.838;4.636;2023-02-28T02:03:47;11.85;;;6.07;;
32535;SDS011;18974;50.838;4.636;2023-02-28T02:06:24;9.88;;;5.70;;
32535;SDS011;18974;50.838;4.636;2023-02-28T02:08:55;12.18;;;5.85;;
32535;SDS011;18974;50.838;4.636;2023-02-28T02:11:21;11.57;;;5.88;;
32535;SDS011;18974;50.838;4.636;2023-02-28T02:23:12;11.88;;;6.47;;
32535;SDS011;18974;50.838;4.636;2023-02-28T02:25:56;19.83;;;6.82;;
32535;SDS011;18974;50.838;4.636;2023-02-28T02:32:18;10.43;;;5.47;;
32535;SDS011;18974;50.838;4.636;2023-02-28T02:37:32;13.45;;;6.18;;
32535;SDS011;18974;50.838;4.636;2023-02-28T02:40:10;13.65;;;6.47;;
32535;SDS011;18974;50.838;4.636;2023-02-28T02:42:53;9.13;;;5.72;;
32535;SDS011;18974;50.838;4.636;2023-02-28T02:48:07;13.43;;;6.70;;
32535;SDS011;18974;50.838;4.636;2023-02-28T02:50:38;15.40;;;6.95;;
32535;SDS011;18974;50.838;4.636;2023-02-28T02:53:11;18.08;;;6.15;;
32535;SDS011;18974;50.838;4.636;2023-02-28T02:55:40;13.32;;;5.90;;
32535;SDS011;18974;50.838;4.636;2023-02-28T02:58:09;18.65;;;7.13;;
32535;SDS011;18974;50.838;4.636;2023-02-28T03:00:41;13.00;;;6.38;;
32535;SDS011;18974;50.838;4.636;2023-02-28T03:03:11;13.40;;;6.80;;
32535;SDS011;18974;50.838;4.636;2023-02-28T03:05:42;16.73;;;7.18;;
32535;SDS011;18974;50.838;4.636;2023-02-28T03:08:11;15.13;;;6.97;;
32535;SDS011;18974;50.838;4.636;2023-02-28T03:10:38;11.10;;;6.50;;
32535;SDS011;18974;50.838;4.636;2023-02-28T03:24:28;16.30;;;6.35;;
32535;SDS011;18974;50.838;4.636;2023-02-28T03:32:57;14.00;;;6.85;;
32535;SDS011;18974;50.838;4.636;2023-02-28T03:35:51;13.90;;;6.45;;
32535;SDS011;18974;50.838;4.636;2023-02-28T03:41:14;17.80;;;7.45;;
32535;SDS011;18974;50.838;4.636;2023-02-28T03:43:42;12.98;;;7.50;;
32535;SDS011;18974;50.838;4.636;2023-02-28T03:46:12;12.63;;;7.03;;
32535;SDS011;18974;50.838;4.636;2023-02-28T03:48:49;15.63;;;7.40;;
32535;SDS011;18974;50.838;4.636;2023-02-28T03:51:21;15.23;;;8.03;;
32535;SDS011;18974;50.838;4.636;2023-02-28T03:53:53;11.82;;;6.82;;
32535;SDS011;18974;50.838;4.636;2023-02-28T03:56:31;16.67;;;7.22;;
32535;SDS011;18974;50.838;4.636;2023-02-28T04:01:52;14.85;;;7.43;;
32535;SDS011;18974;50.838;4.636;2023-02-28T04:04:18;17.13;;;7.93;;
32535;SDS011;18974;50.838;4.636;2023-02-28T04:06:44;19.27;;;8.57;;
32535;SDS011;18974;50.838;4.636;2023-02-28T04:09:11;17.50;;;7.78;;
32535;SDS011;18974;50.838;4.636;2023-02-28T04:11:39;17.85;;;8.43;;
32535;SDS011;18974;50.838;4.636;2023-02-28T04:14:07;12.73;;;7.65;;
32535;SDS011;18974;50.838;4.636;2023-02-28T04:16:35;18.05;;;8.70;;
32535;SDS011;18974;50.838;4.636;2023-02-28T04:19:04;15.80;;;8.68;;
32535;SDS011;18974;50.838;4.636;2023-02-28T04:21:37;21.00;;;9.10;;
32535;SDS011;18974;50.838;4.636;2023-02-28T04:24:05;18.23;;;8.85;;
32535;SDS011;18974;50.838;4.636;2023-02-28T04:26:34;18.85;;;8.77;;
32535;SDS011;18974;50.838;4.636;2023-02-28T04:29:02;18.65;;;8.43;;
32535;SDS011;18974;50.838;4.636;2023-02-28T04:31:29;19.38;;;8.80;;
32535;SDS011;18974;50.838;4.636;2023-02-28T04:33:55;20.63;;;9.15;;
32535;SDS011;18974;50.838;4.636;2023-02-28T04:36:20;17.77;;;9.13;;
32535;SDS011;18974;50.838;4.636;2023-02-28T04:38:47;17.13;;;9.10;;
32535;SDS011;18974;50.838;4.636;2023-02-28T04:41:13;19.58;;;9.38;;
32535;SDS011;18974;50.838;4.636;2023-02-28T04:43:39;18.77;;;9.80;;
32535;SDS011;18974;50.838;4.636;2023-02-28T04:46:05;17.75;;;8.35;;
32535;SDS011;18974;50.838;4.636;2023-02-28T04:48:32;19.20;;;9.32;;
32535;SDS011;18974;50.838;4.636;2023-02-28T04:51:10;15.63;;;8.98;;
32535;SDS011;18974;50.838;4.636;2023-02-28T04:53:37;22.42;;;10.43;;
32535;SDS011;18974;50.838;4.636;2023-02-28T04:56:04;18.42;;;9.73;;
32535;SDS011;18974;50.838;4.636;2023-02-28T04:58:31;19.92;;;9.65;;
32535;SDS011;18974;50.838;4.636;2023-02-28T05:03:50;21.45;;;8.63;;
32535;SDS011;18974;50.838;4.636;2023-02-28T05:06:18;15.38;;;9.45;;
32535;SDS011;18974;50.838;4.636;2023-02-28T05:08:45;22.85;;;9.98;;
32535;SDS011;18974;50.838;4.636;2023-02-28T05:11:44;17.88;;;10.23;;
32535;SDS011;18974;50.838;4.636;2023-02-28T05:14:05;17.75;;;8.73;;
32535;SDS011;18974;50.838;4.636;2023-02-28T05:16:37;20.10;;;9.63;;
32535;SDS011;18974;50.838;4.636;2023-02-28T05:19:04;18.75;;;9.82;;
32535;SDS011;18974;50.838;4.636;2023-02-28T05:21:31;16.95;;;9.68;;
32535;SDS011;18974;50.838;4.636;2023-02-28T05:24:05;16.38;;;9.13;;
32535;SDS011;18974;50.838;4.636;2023-02-28T05:26:36;19.20;;;9.30;;
32535;SDS011;18974;50.838;4.636;2023-02-28T05:29:04;17.50;;;9.10;;
32535;SDS011;18974;50.838;4.636;2023-02-28T05:31:30;21.02;;;10.00;;
32535;SDS011;18974;50.838;4.636;2023-02-28T05:33:56;22.13;;;10.38;;
32535;SDS011;18974;50.838;4.636;2023-02-28T05:36:22;24.63;;;11.18;;
32535;SDS011;18974;50.838;4.636;2023-02-28T05:38:49;20.40;;;9.77;;
32535;SDS011;18974;50.838;4.636;2023-02-28T05:41:15;17.02;;;9.90;;
32535;SDS011;18974;50.838;4.636;2023-02-28T05:43:41;18.13;;;10.02;;
32535;SDS011;18974;50.838;4.636;2023-02-28T05:46:08;18.88;;;9.40;;
32535;SDS011;18974;50.838;4.636;2023-02-28T05:48:36;19.35;;;9.70;;
32535;SDS011;18974;50.838;4.636;2023-02-28T05:51:03;20.60;;;10.50;;
32535;SDS011;18974;50.838;4.636;2023-02-28T05:53:29;20.27;;;9.60;;
32535;SDS011;18974;50.838;4.636;2023-02-28T05:55:56;16.98;;;9.70;;
32535;SDS011;18974;50.838;4.636;2023-02-28T05:58:22;13.77;;;9.20;;
32535;SDS011;18974;50.838;4.636;2023-02-28T06:00:50;20.55;;;9.57;;
32535;SDS011;18974;50.838;4.636;2023-02-28T06:03:15;19.65;;;10.25;;
32535;SDS011;18974;50.838;4.636;2023-02-28T06:05:41;20.60;;;10.45;;
32535;SDS011;18974;50.838;4.636;2023-02-28T06:08:07;21.40;;;10.13;;
32535;SDS011;18974;50.838;4.636;2023-02-28T06:10:33;17.35;;;10.30;;
32535;SDS011;18974;50.838;4.636;2023-02-28T06:13:03;19.02;;;9.40;;
32535;SDS011;18974;50.838;4.636;2023-02-28T06:15:29;18.00;;;9.90;;
32535;SDS011;18974;50.838;4.636;2023-02-28T06:17:54;20.92;;;11.30;;
32535;SDS011;18974;50.838;4.636;2023-02-28T06:20:21;21.70;;;10.02;;
32535;SDS011;18974;50.838;4.636;2023-02-28T06:22:48;25.23;;;9.50;;
32535;SDS011;18974;50.838;4.636;2023-02-28T06:25:15;24.30;;;9.93;;
32535;SDS011;18974;50.838;4.636;2023-02-28T06:27:40;16.90;;;8.98;;
32535;SDS011;18974;50.838;4.636;2023-02-28T06:30:06;17.17;;;9.23;;
32535;SDS011;18974;50.838;4.636;2023-02-28T06:32:32;19.42;;;10.05;;
32535;SDS011;18974;50.838;4.636;2023-02-28T06:34:58;16.73;;;10.45;;
32535;SDS011;18974;50.838;4.636;2023-02-28T06:37:24;18.85;;;9.23;;
32535;SDS011;18974;50.838;4.636;2023-02-28T06:39:53;20.42;;;9.48;;
32535;SDS011;18974;50.838;4.636;2023-02-28T06:42:21;21.38;;;9.55;;
32535;SDS011;18974;50.838;4.636;2023-02-28T06:44:50;14.73;;;9.45;;
32535;SDS011;18974;50.838;4.636;2023-02-28T06:47:16;22.33;;;10.60;;
32535;SDS011;18974;50.838;4.636;2023-02-28T06:49:41;17.13;;;9.75;;
32535;SDS011;18974;50.838;4.636;2023-02-28T06:52:07;16.75;;;10.25;;
32535;SDS011;18974;50.838;4.636;2023-02-28T06:54:35;20.48;;;10.65;;
32535;SDS011;18974;50.838;4.636;2023-02-28T06:57:01;19.95;;;9.70;;
32535;SDS011;18974;50.838;4.636;2023-02-28T06:59:27;18.48;;;10.68;;
32535;SDS011;18974;50.838;4.636;2023-02-28T07:01:53;17.67;;;9.80;;
32535;SDS011;18974;50.838;4.636;2023-02-28T07:04:19;23.10;;;11.23;;
32535;SDS011;18974;50.838;4.636;2023-02-28T07:06:46;19.17;;;10.23;;
32535;SDS011;18974;50.838;4.636;2023-02-28T07:09:11;16.55;;;9.23;;
32535;SDS011;18974;50.838;4.636;2023-02-28T07:11:38;18.75;;;9.73;;
32535;SDS011;18974;50.838;4.636;2023-02-28T07:14:06;16.63;;;9.68;;
32535;SDS011;18974;50.838;4.636;2023-02-28T07:16:32;18.92;;;9.30;;
32535;SDS011;18974;50.838;4.636;2023-02-28T07:18:58;18.02;;;9.18;;
32535;SDS011;18974;50.838;4.636;2023-02-28T07:21:23;18.77;;;9.48;;
32535;SDS011;18974;50.838;4.636;2023-02-28T07:23:50;22.50;;;10.07;;
32535;SDS011;18974;50.838;4.636;2023-02-28T07:26:17;20.17;;;9.68;;
32535;SDS011;18974;50.838;4.636;2023-02-28T07:28:44;18.27;;;9.20;;
32535;SDS011;18974;50.838;4.636;2023-02-28T07:31:11;16.42;;;9.68;;
32535;SDS011;18974;50.838;4.636;2023-02-28T07:33:39;20.33;;;9.90;;
32535;SDS011;18974;50.838;4.636;2023-02-28T07:36:08;18.30;;;9.63;;
32535;SDS011;18974;50.838;4.636;2023-02-28T07:38:40;24.67;;;9.23;;
32535;SDS011;18974;50.838;4.636;2023-02-28T07:41:15;15.93;;;9.10;;
32535;SDS011;18974;50.838;4.636;2023-02-28T07:43:42;21.30;;;9.52;;
32535;SDS011;18974;50.838;4.636;2023-02-28T07:46:10;17.20;;;8.57;;
32535;SDS011;18974;50.838;4.636;2023-02-28T07:48:37;22.45;;;8.65;;
32535;SDS011;18974;50.838;4.636;2023-02-28T07:51:03;14.60;;;7.93;;
32535;SDS011;18974;50.838;4.636;2023-02-28T07:53:29;17.83;;;8.52;;
32535;SDS011;18974;50.838;4.636;2023-02-28T07:55:59;13.88;;;7.57;;
32535;SDS011;18974;50.838;4.636;2023-02-28T07:58:26;18.13;;;7.60;;
32535;SDS011;18974;50.838;4.636;2023-02-28T08:00:52;14.95;;;7.32;;
32535;SDS011;18974;50.838;4.636;2023-02-28T08:03:18;14.73;;;7.50;;
32535;SDS011;18974;50.838;4.636;2023-02-28T08:05:45;17.77;;;8.40;;
32535;SDS011;18974;50.838;4.636;2023-02-28T08:08:11;12.13;;;6.88;;
32535;SDS011;18974;50.838;4.636;2023-02-28T08:10:37;14.57;;;6.68;;
32535;SDS011;18974;50.838;4.636;2023-02-28T08:13:03;12.95;;;6.32;;
32535;SDS011;18974;50.838;4.636;2023-02-28T08:15:28;13.30;;;6.15;;
32535;SDS011;18974;50.838;4.636;2023-02-28T08:17:54;11.68;;;5.50;;
32535;SDS011;18974;50.838;4.636;2023-02-28T08:20:21;12.25;;;5.85;;
32535;SDS011;18974;50.838;4.636;2023-02-28T08:22:47;13.43;;;5.90;;
32535;SDS011;18974;50.838;4.636;2023-02-28T08:25:13;14.85;;;6.05;;
32535;SDS011;18974;50.838;4.636;2023-02-28T08:27:39;13.93;;;5.82;;
32535;SDS011;18974;50.838;4.636;2023-02-28T08:30:10;12.30;;;5.40;;
32535;SDS011;18974;50.838;4.636;2023-02-28T08:32:37;8.32;;;5.13;;
32535;SDS011;18974;50.838;4.636;2023-02-28T08:35:03;11.73;;;6.13;;
32535;SDS011;18974;50.838;4.636;2023-02-28T08:37:29;9.45;;;5.15;;
32535;SDS011;18974;50.838;4.636;2023-02-28T08:39:55;9.50;;;5.10;;
32535;SDS011;18974;50.838;4.636;2023-02-28T08:42:20;8.90;;;5.47;;
32535;SDS011;18974;50.838;4.636;2023-02-28T08:44:46;14.70;;;5.53;;
32535;SDS011;18974;50.838;4.636;2023-02-28T08:47:11;9.43;;;5.05;;
32535;SDS011;18974;50.838;4.636;2023-02-28T08:49:37;11.30;;;5.82;;
32535;SDS011;18974;50.838;4.636;2023-02-28T08:52:03;9.30;;;4.80;;
32535;SDS011;18974;50.838;4.636;2023-02-28T08:54:29;10.18;;;4.97;;
32535;SDS011;18974;50.838;4.636;2023-02-28T08:56:56;14.02;;;5.05;;
32535;SDS011;18974;50.838;4.636;2023-02-28T08:59:22;11.98;;;5.15;;
32535;SDS011;18974;50.838;4.636;2023-02-28T09:01:48;8.70;;;4.45;;
32535;SDS011;18974;50.838;4.636;2023-02-28T09:04:13;11.30;;;4.93;;
32535;SDS011;18974;50.838;4.636;2023-02-28T09:06:39;7.00;;;4.45;;
32535;SDS011;18974;50.838;4.636;2023-02-28T09:09:05;8.57;;;4.13;;
32535;SDS011;18974;50.838;4.636;2023-02-28T09:11:32;6.40;;;4.32;;
32535;SDS011;18974;50.838;4.636;2023-02-28T09:14:00;7.60;;;4.25;;
32535;SDS011;18974;50.838;4.636;2023-02-28T09:16:28;10.07;;;4.32;;
32535;SDS011;18974;50.838;4.636;2023-02-28T09:18:54;12.05;;;4.20;;
32535;SDS011;18974;50.838;4.636;2023-02-28T09:21:20;9.00;;;4.25;;
32535;SDS011;18974;50.838;4.636;2023-02-28T09:23:46;11.10;;;3.65;;
32535;SDS011;18974;50.838;4.636;2023-02-28T09:26:17;8.68;;;3.50;;
32535;SDS011;18974;50.838;4.636;2023-02-28T09:28:44;5.82;;;3.38;;
32535;SDS011;18974;50.838;4.636;2023-02-28T09:31:12;6.68;;;3.20;;
32535;SDS011;18974;50.838;4.636;2023-02-28T09:33:45;4.95;;;2.40;;
32535;SDS011;18974;50.838;4.636;2023-02-28T09:36:11;4.68;;;3.20;;
32535;SDS011;18974;50.838;4.636;2023-02-28T09:38:37;8.65;;;3.47;;
32535;SDS011;18974;50.838;4.636;2023-02-28T09:41:08;7.57;;;3.80;;
32535;SDS011;18974;50.838;4.636;2023-02-28T09:43:39;11.27;;;3.28;;
32535;SDS011;18974;50.838;4.636;2023-02-28T09:46:12;4.55;;;2.90;;
32535;SDS011;18974;50.838;4.636;2023-02-28T09:48:52;7.05;;;3.17;;
32535;SDS011;18974;50.838;4.636;2023-02-28T09:53:58;5.43;;;3.10;;
32535;SDS011;18974;50.838;4.636;2023-02-28T09:56:25;6.28;;;2.80;;
32535;SDS011;18974;50.838;4.636;2023-02-28T10:02:32;9.85;;;2.47;;
32535;SDS011;18974;50.838;4.636;2023-02-28T10:07:32;3.17;;;2.13;;
32535;SDS011;18974;50.838;4.636;2023-02-28T10:15:47;5.05;;;2.50;;
32535;SDS011;18974;50.838;4.636;2023-02-28T10:18:20;7.35;;;2.17;;
32535;SDS011;18974;50.838;4.636;2023-02-28T10:20:50;4.55;;;2.30;;
32535;SDS011;18974;50.838;4.636;2023-02-28T10:23:35;4.88;;;2.40;;
32535;SDS011;18974;50.838;4.636;2023-02-28T10:26:20;5.97;;;2.63;;
32535;SDS011;18974;50.838;4.636;2023-02-28T10:31:19;5.30;;;2.25;;
32535;SDS011;18974;50.838;4.636;2023-02-28T10:33:46;6.07;;;2.15;;
32535;SDS011;18974;50.838;4.636;2023-02-28T10:36:17;4.15;;;2.55;;
32535;SDS011;18974;50.838;4.636;2023-02-28T10:38:45;3.80;;;2.00;;
32535;SDS011;18974;50.838;4.636;2023-02-28T10:41:15;4.85;;;2.28;;
32535;SDS011;18974;50.838;4.636;2023-02-28T10:43:53;2.70;;;1.90;;
32535;SDS011;18974;50.838;4.636;2023-02-28T10:46:46;4.93;;;2.00;;
32535;SDS011;18974;50.838;4.636;2023-02-28T10:49:21;4.22;;;2.08;;
32535;SDS011;18974;50.838;4.636;2023-02-28T10:51:58;5.43;;;2.15;;
32535;SDS011;18974;50.838;4.636;2023-02-28T10:54:32;3.42;;;1.92;;
32535;SDS011;18974;50.838;4.636;2023-02-28T10:57:20;5.43;;;2.33;;
32535;SDS011;18974;50.838;4.636;2023-02-28T10:59:52;4.65;;;2.05;;
32535;SDS011;18974;50.838;4.636;2023-02-28T11:02:36;7.22;;;2.20;;
32535;SDS011;18974;50.838;4.636;2023-02-28T11:05:21;3.90;;;2.10;;
32535;SDS011;18974;50.838;4.636;2023-02-28T11:07:52;6.55;;;2.15;;
32535;SDS011;18974;50.838;4.636;2023-02-28T11:10:39;4.53;;;2.42;;
32535;SDS011;18974;50.838;4.636;2023-02-28T11:13:14;4.40;;;2.28;;
32535;SDS011;18974;50.838;4.636;2023-02-28T11:15:45;5.35;;;2.58;;
32535;SDS011;18974;50.838;4.636;2023-02-28T11:18:42;5.47;;;2.83;;
32535;SDS011;18974;50.838;4.636;2023-02-28T11:21:16;3.35;;;2.10;;
32535;SDS011;18974;50.838;4.636;2023-02-28T11:24:01;5.18;;;2.40;;
32535;SDS011;18974;50.838;4.636;2023-02-28T11:26:44;2.47;;;1.77;;
32535;SDS011;18974;50.838;4.636;2023-02-28T11:31:37;2.78;;;1.60;;
32535;SDS011;18974;50.838;4.636;2023-02-28T11:34:07;2.83;;;1.88;;
32535;SDS011;18974;50.838;4.636;2023-02-28T11:36:49;4.95;;;1.90;;
32535;SDS011;18974;50.838;4.636;2023-02-28T11:39:18;6.18;;;2.00;;
32535;SDS011;18974;50.838;4.636;2023-02-28T11:42:00;4.22;;;1.92;;
32535;SDS011;18974;50.838;4.636;2023-02-28T11:53:00;4.72;;;2.13;;
32535;SDS011;18974;50.838;4.636;2023-02-28T11:58:02;2.80;;;2.03;;
32535;SDS011;18974;50.838;4.636;2023-02-28T12:01:09;7.15;;;2.10;;
32535;SDS011;18974;50.838;4.636;2023-02-28T12:04:11;3.22;;;1.88;;
32535;SDS011;18974;50.838;4.636;2023-02-28T12:06:45;2.78;;;2.00;;
32535;SDS011;18974;50.838;4.636;2023-02-28T12:09:33;4.47;;;1.95;;
32535;SDS011;18974;50.838;4.636;2023-02-28T12:12:21;3.80;;;1.90;;
32535;SDS011;18974;50.838;4.636;2023-02-28T12:31:53;2.38;;;1.67;;
32535;SDS011;18974;50.838;4.636;2023-02-28T12:34:25;4.47;;;2.10;;
32535;SDS011;18974;50.838;4.636;2023-02-28T12:37:04;4.03;;;2.08;;
32535;SDS011;18974;50.838;4.636;2023-02-28T12:39:36;3.20;;;2.00;;
32535;SDS011;18974;50.838;4.636;2023-02-28T12:42:10;4.75;;;2.50;;
32535;SDS011;18974;50.838;4.636;2023-02-28T12:47:17;3.03;;;1.65;;
32535;SDS011;18974;50.838;4.636;2023-02-28T12:49:50;4.07;;;1.90;;
32535;SDS011;18974;50.838;4.636;2023-02-28T12:53:08;3.35;;;1.98;;
32535;SDS011;18974;50.838;4.636;2023-02-28T13:00:36;1.83;;;1.42;;
32535;SDS011;18974;50.838;4.636;2023-02-28T13:11:31;2.08;;;1.65;;
32535;SDS011;18974;50.838;4.636;2023-02-28T13:13:58;5.07;;;1.85;;
32535;SDS011;18974;50.838;4.636;2023-02-28T13:16:25;3.50;;;1.98;;
32535;SDS011;18974;50.838;4.636;2023-02-28T13:18:51;4.93;;;1.85;;
32535;SDS011;18974;50.838;4.636;2023-02-28T13:21:28;3.15;;;2.25;;
32535;SDS011;18974;50.838;4.636;2023-02-28T13:32:18;3.55;;;1.80;;
32535;SDS011;18974;50.838;4.636;2023-02-28T13:39:54;6.38;;;2.20;;
32535;SDS011;18974;50.838;4.636;2023-02-28T13:47:35;8.02;;;3.28;;
32535;SDS011;18974;50.838;4.636;2023-02-28T14:06:57;5.70;;;2.03;;
32535;SDS011;18974;50.838;4.636;2023-02-28T14:11:51;2.40;;;1.85;;
32535;SDS011;18974;50.838;4.636;2023-02-28T14:17:01;3.63;;;2.33;;
32535;SDS011;18974;50.838;4.636;2023-02-28T14:19:30;5.40;;;2.45;;
32535;SDS011;18974;50.838;4.636;2023-02-28T14:22:16;4.43;;;2.28;;
32535;SDS011;18974;50.838;4.636;2023-02-28T14:27:36;4.85;;;2.75;;
32535;SDS011;18974;50.838;4.636;2023-02-28T14:38:52;5.63;;;2.35;;
32535;SDS011;18974;50.838;4.636;2023-02-28T14:41:29;3.47;;;1.98;;
32535;SDS011;18974;50.838;4.636;2023-02-28T14:43:56;3.10;;;2.38;;
32535;SDS011;18974;50.838;4.636;2023-02-28T14:46:25;3.60;;;2.60;;
32535;SDS011;18974;50.838;4.636;2023-02-28T14:49:00;3.25;;;2.20;;
32535;SDS011;18974;50.838;4.636;2023-02-28T14:51:26;6.35;;;2.67;;
32535;SDS011;18974;50.838;4.636;2023-02-28T14:53:56;2.97;;;2.55;;
32535;SDS011;18974;50.838;4.636;2023-02-28T14:56:26;6.35;;;2.45;;
32535;SDS011;18974;50.838;4.636;2023-02-28T14:59:01;3.17;;;2.60;;
32535;SDS011;18974;50.838;4.636;2023-02-28T15:01:27;2.67;;;1.98;;
32535;SDS011;18974;50.838;4.636;2023-02-28T15:03:57;4.78;;;2.42;;
32535;SDS011;18974;50.838;4.636;2023-02-28T15:06:24;4.47;;;2.28;;
32535;SDS011;18974;50.838;4.636;2023-02-28T15:09:06;4.38;;;2.58;;
32535;SDS011;18974;50.838;4.636;2023-02-28T15:11:52;6.15;;;2.90;;
32535;SDS011;18974;50.838;4.636;2023-02-28T15:14:21;3.22;;;2.35;;
32535;SDS011;18974;50.838;4.636;2023-02-28T15:16:58;4.05;;;2.60;;
32535;SDS011;18974;50.838;4.636;2023-02-28T15:19:30;10.60;;;3.25;;
32535;SDS011;18974;50.838;4.636;2023-02-28T15:22:02;5.50;;;2.17;;
32535;SDS011;18974;50.838;4.636;2023-02-28T15:24:35;3.55;;;2.45;;
32535;SDS011;18974;50.838;4.636;2023-02-28T15:27:14;3.90;;;2.50;;
32535;SDS011;18974;50.838;4.636;2023-02-28T15:29:51;4.03;;;2.65;;
32535;SDS011;18974;50.838;4.636;2023-02-28T15:32:23;7.28;;;2.40;;
32535;SDS011;18974;50.838;4.636;2023-02-28T15:34:51;6.00;;;2.60;;
32535;SDS011;18974;50.838;4.636;2023-02-28T15:40:40;5.40;;;2.90;;
32535;SDS011;18974;50.838;4.636;2023-02-28T15:43:15;6.97;;;3.17;;
32535;SDS011;18974;50.838;4.636;2023-02-28T15:46:25;5.50;;;3.17;;
32535;SDS011;18974;50.838;4.636;2023-02-28T15:48:51;4.25;;;2.75;;
32535;SDS011;18974;50.838;4.636;2023-02-28T15:51:24;5.13;;;3.00;;
32535;SDS011;18974;50.838;4.636;2023-02-28T15:53:58;5.78;;;3.13;;
32535;SDS011;18974;50.838;4.636;2023-02-28T15:56:27;5.60;;;2.67;;
32535;SDS011;18974;50.838;4.636;2023-02-28T15:58:55;5.88;;;2.85;;
32535;SDS011;18974;50.838;4.636;2023-02-28T16:01:27;6.30;;;2.88;;
32535;SDS011;18974;50.838;4.636;2023-02-28T16:04:03;5.32;;;3.22;;
32535;SDS011;18974;50.838;4.636;2023-02-28T16:06:53;4.53;;;2.65;;
32535;SDS011;18974;50.838;4.636;2023-02-28T16:09:29;4.93;;;3.00;;
32535;SDS011;18974;50.838;4.636;2023-02-28T16:11:56;4.18;;;2.63;;
32535;SDS011;18974;50.838;4.636;2023-02-28T16:14:27;6.57;;;2.70;;
32535;SDS011;18974;50.838;4.636;2023-02-28T16:17:02;4.00;;;2.63;;
32535;SDS011;18974;50.838;4.636;2023-02-28T16:19:29;4.32;;;2.85;;
32535;SDS011;18974;50.838;4.636;2023-02-28T16:21:55;6.97;;;2.90;;
32535;SDS011;18974;50.838;4.636;2023-02-28T16:24:21;6.38;;;3.20;;
32535;SDS011;18974;50.838;4.636;2023-02-28T16:26:48;6.35;;;3.20;;
32535;SDS011;18974;50.838;4.636;2023-02-28T16:29:32;4.57;;;2.20;;
32535;SDS011;18974;50.838;4.636;2023-02-28T16:32:01;5.05;;;2.47;;
32535;SDS011;18974;50.838;4.636;2023-02-28T16:34:30;5.25;;;2.70;;
32535;SDS011;18974;50.838;4.636;2023-02-28T16:36:55;4.00;;;2.60;;
32535;SDS011;18974;50.838;4.636;2023-02-28T16:39:21;3.83;;;2.03;;
32535;SDS011;18974;50.838;4.636;2023-02-28T16:41:47;5.18;;;2.53;;
32535;SDS011;18974;50.838;4.636;2023-02-28T16:44:48;5.95;;;2.80;;
32535;SDS011;18974;50.838;4.636;2023-02-28T16:47:08;5.90;;;3.15;;
32535;SDS011;18974;50.838;4.636;2023-02-28T16:49:35;5.60;;;2.75;;
32535;SDS011;18974;50.838;4.636;2023-02-28T16:52:01;5.28;;;3.03;;
32535;SDS011;18974;50.838;4.636;2023-02-28T16:54:27;5.80;;;3.05;;
32535;SDS011;18974;50.838;4.636;2023-02-28T16:56:52;4.13;;;2.83;;
32535;SDS011;18974;50.838;4.636;2023-02-28T16:59:19;6.30;;;2.75;;
32535;SDS011;18974;50.838;4.636;2023-02-28T17:01:49;4.50;;;2.83;;
32535;SDS011;18974;50.838;4.636;2023-02-28T17:04:15;9.35;;;2.95;;
32535;SDS011;18974;50.838;4.636;2023-02-28T17:06:41;7.25;;;2.45;;
32535;SDS011;18974;50.838;4.636;2023-02-28T17:09:28;8.63;;;2.65;;
32535;SDS011;18974;50.838;4.636;2023-02-28T17:11:52;2.95;;;2.13;;
32535;SDS011;18974;50.838;4.636;2023-02-28T17:14:18;4.07;;;2.58;;
32535;SDS011;18974;50.838;4.636;2023-02-28T17:16:44;6.82;;;2.88;;
32535;SDS011;18974;50.838;4.636;2023-02-28T17:19:11;4.55;;;2.63;;
32535;SDS011;18974;50.838;4.636;2023-02-28T17:21:38;6.47;;;3.55;;
32535;SDS011;18974;50.838;4.636;2023-02-28T17:24:06;7.28;;;3.20;;
32535;SDS011;18974;50.838;4.636;2023-02-28T17:26:32;7.60;;;3.35;;
32535;SDS011;18974;50.838;4.636;2023-02-28T17:28:58;7.07;;;3.88;;
32535;SDS011;18974;50.838;4.636;2023-02-28T17:31:24;5.43;;;3.28;;
32535;SDS011;18974;50.838;4.636;2023-02-28T17:33:52;5.30;;;3.10;;
32535;SDS011;18974;50.838;4.636;2023-02-28T17:36:24;7.07;;;4.13;;
32535;SDS011;18974;50.838;4.636;2023-02-28T17:38:51;9.18;;;3.85;;
32535;SDS011;18974;50.838;4.636;2023-02-28T17:41:18;6.60;;;3.40;;
32535;SDS011;18974;50.838;4.636;2023-02-28T17:43:43;14.18;;;6.80;;
32535;SDS011;18974;50.838;4.636;2023-02-28T17:46:19;9.07;;;2.80;;